createdAt,value
2019-01-23T00:01:27.827Z,3.91
2019-01-23T00:03:59.457Z,3.93
2019-01-23T00:06:31.015Z,3.92
2019-01-23T00:09:02.632Z,3.95
2019-01-23T00:11:36.119Z,3.93
2019-01-23T00:14:07.869Z,3.97
2019-01-23T00:16:39.527Z,3.93
2019-01-23T00:19:11.156Z,4.00
2019-01-23T00:21:42.719Z,3.97
2019-01-23T00:24:14.308Z,3.95
2019-01-23T00:26:45.850Z,3.97
2019-01-23T00:29:17.468Z,4.02
2019-01-23T00:31:49.091Z,3.99
2019-01-23T00:34:20.804Z,4.03
2019-01-23T00:36:52.404Z,3.99
2019-01-23T00:39:24.042Z,3.98
2019-01-23T00:41:55.596Z,3.98
2019-01-23T00:44:27.124Z,4.00
2019-01-23T00:46:58.812Z,4.02
2019-01-23T00:49:30.428Z,4.00
2019-01-23T00:52:01.997Z,4.00
2019-01-23T00:54:33.826Z,3.98
2019-01-23T00:57:05.525Z,3.98
2019-01-23T00:59:37.099Z,4.02
2019-01-23T01:02:08.875Z,4.01
2019-01-23T01:04:40.309Z,4.02
2019-01-23T01:07:12.015Z,4.06
2019-01-23T01:09:43.466Z,4.05
2019-01-23T01:12:15.104Z,4.06
2019-01-23T01:14:46.771Z,4.03
2019-01-23T01:17:18.402Z,4.06
2019-01-23T01:19:49.963Z,4.07
2019-01-23T01:22:21.492Z,4.05
2019-01-23T01:24:53.179Z,4.06
2019-01-23T01:27:24.703Z,4.07
2019-01-23T01:29:56.332Z,4.06
2019-01-23T01:32:27.952Z,4.07
2019-01-23T01:34:59.446Z,4.06
2019-01-23T01:37:31.067Z,4.05
2019-01-23T01:40:02.509Z,4.04
2019-01-23T01:42:33.957Z,4.07
2019-01-23T01:45:06.511Z,4.08
2019-01-23T01:47:38.277Z,4.11
2019-01-23T01:50:15.452Z,4.10
2019-01-23T01:52:48.428Z,4.08
2019-01-23T01:55:20.147Z,4.07
2019-01-23T01:57:55.541Z,4.08
2019-01-23T02:00:27.306Z,4.07
2019-01-23T02:02:58.956Z,4.08
2019-01-23T02:05:30.486Z,4.05
2019-01-23T02:08:02.165Z,4.07
2019-01-23T02:10:33.713Z,4.04
2019-01-23T02:13:05.426Z,4.09
2019-01-23T02:15:37.014Z,4.06
2019-01-23T02:18:08.717Z,4.06
2019-01-23T02:20:40.291Z,4.06
2019-01-23T02:23:11.940Z,4.05
2019-01-23T02:25:43.577Z,4.04
2019-01-23T02:28:15.135Z,4.09
2019-01-23T02:30:46.887Z,4.09
2019-01-23T02:33:18.467Z,4.08
2019-01-23T02:35:49.989Z,4.09
2019-01-23T02:38:21.942Z,4.08
2019-01-23T02:40:53.555Z,4.10
2019-01-23T02:43:25.016Z,4.10
2019-01-23T02:45:56.631Z,4.10
2019-01-23T02:48:28.150Z,4.16
2019-01-23T02:50:59.659Z,4.19
2019-01-23T02:53:31.159Z,4.13
2019-01-23T02:56:02.774Z,4.16
2019-01-23T02:58:34.394Z,4.17
2019-01-23T03:01:06.284Z,4.21
2019-01-23T03:03:37.855Z,4.19
2019-01-23T03:06:09.522Z,4.22
2019-01-23T03:08:41.237Z,4.25
2019-01-23T03:11:12.983Z,4.23
2019-01-23T03:13:44.492Z,4.22
2019-01-23T03:16:15.998Z,4.22
2019-01-23T03:18:47.606Z,4.20
2019-01-23T03:21:19.096Z,4.25
2019-01-23T03:23:50.669Z,4.27
2019-01-23T03:26:22.247Z,4.27
2019-01-23T03:28:53.898Z,4.26
2019-01-23T03:31:25.506Z,4.26
2019-01-23T03:33:57.140Z,4.25
2019-01-23T03:36:28.872Z,4.28
2019-01-23T03:39:00.526Z,4.27
2019-01-23T03:41:33.801Z,4.31
2019-01-23T03:44:05.632Z,4.33
2019-01-23T03:46:37.232Z,4.35
2019-01-23T03:49:09.035Z,4.38
2019-01-23T03:51:40.607Z,4.37
2019-01-23T03:54:12.340Z,4.41
2019-01-23T03:56:44.105Z,4.41
2019-01-23T03:59:15.644Z,4.45
2019-01-23T04:01:47.251Z,4.47
2019-01-23T04:04:18.872Z,4.49
2019-01-23T04:06:50.479Z,4.45
2019-01-23T04:09:22.127Z,4.48
2019-01-23T04:11:53.721Z,4.51
2019-01-23T04:14:25.415Z,4.57
2019-01-23T04:16:56.957Z,4.60
2019-01-23T04:19:28.417Z,4.62
2019-01-23T04:21:59.956Z,4.60
2019-01-23T04:24:31.476Z,4.59
2019-01-23T04:27:03.017Z,4.63
2019-01-23T04:29:39.521Z,4.63
2019-01-23T04:32:08.053Z,4.63
2019-01-23T04:34:39.717Z,4.67
2019-01-23T04:37:11.359Z,4.73
2019-01-23T04:39:42.877Z,4.73
2019-01-23T04:42:14.385Z,4.72
2019-01-23T04:44:46.103Z,4.75
2019-01-23T04:47:17.776Z,4.77
2019-01-23T04:49:49.425Z,4.82
2019-01-23T04:52:35.727Z,4.85
2019-01-23T04:55:07.785Z,4.87
2019-01-23T04:57:39.507Z,4.82
2019-01-23T05:00:13.746Z,4.82
2019-01-23T05:02:45.396Z,4.84
2019-01-23T05:05:17.075Z,4.84
2019-01-23T05:07:48.644Z,4.78
2019-01-23T05:10:20.291Z,4.78
2019-01-23T05:12:52.077Z,4.77
2019-01-23T05:15:23.783Z,4.76
2019-01-23T05:17:55.483Z,4.77
2019-01-23T05:20:27.055Z,4.74
2019-01-23T05:22:58.669Z,4.76
2019-01-23T05:25:30.277Z,4.74
2019-01-23T05:28:02.065Z,4.75
2019-01-23T05:30:33.956Z,4.75
2019-01-23T05:33:05.478Z,4.73
2019-01-23T05:35:36.915Z,4.76
2019-01-23T05:38:08.423Z,4.72
2019-01-23T05:40:40.041Z,4.72
2019-01-23T05:43:11.774Z,4.70
2019-01-23T05:45:43.195Z,4.67
2019-01-23T05:48:14.867Z,4.68
2019-01-23T05:50:46.427Z,4.55
2019-01-23T05:53:17.926Z,4.71
2019-01-23T05:55:49.410Z,4.72
2019-01-23T05:58:21.066Z,4.73
2019-01-23T06:00:52.557Z,4.79
2019-01-23T06:03:24.114Z,4.78
2019-01-23T06:05:55.662Z,4.79
2019-01-23T06:08:27.364Z,4.84
2019-01-23T06:10:58.896Z,4.88
2019-01-23T06:13:30.402Z,4.83
2019-01-23T06:16:02.027Z,4.91
2019-01-23T06:18:33.686Z,4.91
2019-01-23T06:21:05.350Z,4.91
2019-01-23T06:23:36.864Z,4.96
2019-01-23T06:26:08.472Z,4.94
2019-01-23T06:28:40.156Z,4.99
2019-01-23T06:31:11.607Z,4.98
2019-01-23T06:33:43.321Z,4.99
2019-01-23T06:36:14.784Z,5.05
2019-01-23T06:38:46.240Z,5.06
2019-01-23T06:41:17.769Z,5.08
2019-01-23T06:43:49.543Z,5.12
2019-01-23T06:46:21.070Z,5.15
2019-01-23T06:48:52.734Z,5.21
2019-01-23T06:51:24.356Z,5.25
2019-01-23T06:53:56.029Z,5.30
2019-01-23T06:56:27.649Z,5.31
2019-01-23T06:58:59.336Z,5.35
2019-01-23T07:01:31.085Z,5.39
2019-01-23T07:04:02.792Z,5.39
2019-01-23T07:06:34.387Z,5.43
2019-01-23T07:09:08.939Z,5.48
2019-01-23T07:11:40.553Z,5.54
2019-01-23T07:14:12.096Z,5.56
2019-01-23T07:16:43.705Z,5.63
2019-01-23T07:19:15.223Z,5.72
2019-01-23T07:21:46.778Z,5.70
2019-01-23T07:24:18.450Z,5.80
2019-01-23T07:26:49.988Z,5.93
2019-01-23T07:29:21.426Z,5.98
2019-01-23T07:31:53.117Z,6.01
2019-01-23T07:34:24.647Z,6.04
2019-01-23T07:36:56.206Z,6.07
2019-01-23T07:39:27.612Z,6.05
2019-01-23T07:41:59.215Z,6.10
2019-01-23T07:44:30.858Z,6.10
2019-01-23T07:47:02.731Z,6.23
2019-01-23T07:49:34.409Z,6.29
2019-01-23T07:52:06.120Z,6.32
2019-01-23T07:54:37.608Z,6.38
2019-01-23T07:57:09.108Z,6.41
2019-01-23T07:59:40.739Z,6.46
2019-01-23T08:02:12.322Z,6.53
2019-01-23T08:04:43.932Z,6.56
2019-01-23T08:07:15.558Z,6.59
2019-01-23T08:09:47.161Z,6.61
2019-01-23T08:12:18.654Z,6.63
2019-01-23T08:14:50.276Z,6.65
2019-01-23T08:17:22.004Z,6.69
2019-01-23T08:19:53.587Z,6.80
2019-01-23T08:22:25.207Z,6.83
2019-01-23T08:24:56.817Z,6.91
2019-01-23T08:27:28.436Z,6.95
2019-01-23T08:30:00.197Z,6.97
2019-01-23T08:32:33.954Z,7.01
2019-01-23T08:35:06.303Z,7.00
2019-01-23T08:37:38.001Z,6.96
2019-01-23T08:40:11.380Z,7.00
2019-01-23T08:42:43.127Z,7.05
2019-01-23T08:45:16.342Z,7.14
2019-01-23T08:47:49.642Z,7.27
2019-01-23T08:50:33.481Z,7.38
2019-01-23T08:53:05.296Z,7.35
2019-01-23T08:55:36.975Z,7.39
2019-01-23T08:58:09.074Z,7.42
2019-01-23T09:00:45.773Z,7.43
2019-01-23T09:03:13.976Z,7.45
2019-01-23T09:05:45.437Z,7.47
2019-01-23T09:08:17.571Z,7.52
2019-01-23T09:10:49.237Z,7.50
2019-01-23T09:13:20.759Z,7.57
2019-01-23T09:15:52.414Z,7.54
2019-01-23T09:18:24.010Z,7.54
2019-01-23T09:20:55.563Z,7.56
2019-01-23T09:23:27.137Z,7.59
2019-01-23T09:25:58.756Z,7.66
2019-01-23T09:28:30.367Z,7.77
2019-01-23T09:31:21.403Z,7.76
2019-01-23T09:34:15.815Z,7.77
2019-01-23T09:37:33.232Z,7.84
2019-01-23T09:41:03.166Z,7.84
2019-01-23T09:44:15.303Z,7.91
2019-01-23T09:47:18.631Z,7.98
2019-01-23T09:50:54.997Z,8.04
2019-01-23T09:53:43.614Z,8.19
2019-01-23T09:56:17.073Z,8.37
2019-01-23T09:58:48.629Z,8.38
2019-01-23T10:01:20.227Z,8.30
2019-01-23T10:03:51.832Z,8.29
2019-01-23T10:06:23.566Z,8.36
2019-01-23T10:08:55.117Z,8.44
2019-01-23T10:11:26.836Z,8.57
2019-01-23T10:13:58.359Z,8.77
2019-01-23T10:16:29.927Z,8.97
2019-01-23T10:19:01.496Z,9.24
2019-01-23T10:21:33.476Z,9.51
2019-01-23T10:24:05.308Z,9.71
2019-01-23T10:26:37.017Z,9.87
2019-01-23T10:29:08.714Z,10.06
2019-01-23T10:31:40.463Z,10.13
2019-01-23T10:34:12.126Z,10.29
2019-01-23T10:36:43.799Z,10.42
2019-01-23T10:39:15.519Z,10.47
2019-01-23T10:41:47.227Z,10.53
2019-01-23T10:44:18.956Z,10.54
2019-01-23T10:46:50.544Z,10.44
2019-01-23T10:49:22.347Z,10.41
2019-01-23T10:51:54.345Z,10.44
2019-01-23T10:54:27.158Z,10.55
2019-01-23T10:56:58.902Z,10.54
2019-01-23T10:59:30.618Z,10.47
2019-01-23T11:02:02.146Z,10.46
2019-01-23T11:04:33.675Z,10.48
2019-01-23T11:07:05.352Z,10.40
2019-01-23T11:09:37.055Z,10.28
2019-01-23T11:12:08.699Z,10.21
2019-01-23T11:14:40.488Z,10.13
2019-01-23T11:17:11.969Z,9.93
2019-01-23T11:19:43.771Z,9.97
2019-01-23T11:22:15.696Z,10.05
2019-01-23T11:24:47.422Z,10.12
2019-01-23T11:27:19.138Z,10.15
2019-01-23T11:29:50.777Z,10.28
2019-01-23T11:32:22.446Z,10.44
2019-01-23T11:34:54.201Z,10.43
2019-01-23T11:37:25.923Z,10.34
2019-01-23T11:39:57.589Z,10.22
2019-01-23T11:42:29.187Z,10.13
2019-01-23T11:45:00.907Z,10.09
2019-01-23T11:47:32.520Z,10.03
2019-01-23T11:50:04.690Z,9.97
2019-01-23T11:52:40.673Z,9.96
2019-01-23T11:55:12.897Z,9.97
2019-01-23T11:57:45.706Z,9.94
2019-01-23T12:00:19.780Z,9.91
2019-01-23T12:02:54.133Z,9.89
2019-01-23T12:05:27.288Z,9.96
2019-01-23T12:07:59.092Z,10.03
2019-01-23T12:10:30.746Z,9.99
2019-01-23T12:13:02.453Z,10.07
2019-01-23T12:15:40.693Z,10.20
2019-01-23T12:18:07.403Z,10.18
2019-01-23T12:20:39.610Z,10.26
2019-01-23T12:23:27.658Z,10.27
2019-01-23T12:25:58.634Z,10.31
2019-01-23T12:28:30.314Z,10.33
2019-01-23T12:31:01.898Z,10.31
2019-01-23T12:33:33.566Z,10.31
2019-01-23T12:36:09.694Z,10.21
2019-01-23T12:39:04.187Z,10.23
2019-01-23T12:41:37.521Z,10.32
2019-01-23T12:44:09.486Z,10.31
2019-01-23T12:46:41.059Z,10.24
2019-01-23T12:49:12.642Z,10.34
2019-01-23T12:51:44.216Z,10.38
2019-01-23T12:54:15.835Z,10.44
2019-01-23T12:56:47.498Z,10.50
2019-01-23T12:59:20.306Z,10.43
2019-01-23T13:01:52.037Z,10.41
2019-01-23T13:04:29.943Z,10.39
2019-01-23T13:07:01.561Z,10.42
2019-01-23T13:09:33.144Z,10.31
2019-01-23T13:12:05.114Z,10.32
2019-01-23T13:14:36.832Z,10.16
2019-01-23T13:17:09.749Z,10.10
2019-01-23T13:19:41.301Z,10.00
2019-01-23T13:22:12.988Z,10.03
2019-01-23T13:24:46.495Z,9.98
2019-01-23T13:27:18.118Z,9.90
2019-01-23T13:29:49.721Z,9.78
2019-01-23T13:32:21.406Z,9.80
2019-01-23T13:34:57.599Z,9.74
2019-01-23T13:37:29.274Z,9.81
2019-01-23T13:40:53.397Z,9.68
2019-01-23T13:44:20.442Z,9.67
2019-01-23T13:47:41.002Z,9.76
2019-01-23T13:50:13.796Z,9.81
2019-01-23T13:54:13.825Z,9.67
2019-01-23T13:56:34.335Z,9.66
2019-01-23T13:59:26.085Z,9.57
2019-01-23T14:01:58.873Z,9.39
2019-01-23T14:04:35.586Z,9.24
2019-01-23T14:07:15.522Z,9.12
2019-01-23T14:09:59.878Z,9.08
2019-01-23T14:15:31.413Z,8.95
2019-01-23T14:19:37.125Z,8.81
2019-01-23T14:21:45.165Z,8.80
2019-01-23T14:24:19.953Z,8.85
2019-01-23T14:26:52.016Z,8.75
2019-01-23T14:29:23.532Z,8.84
2019-01-23T14:31:55.082Z,8.85
2019-01-23T14:34:26.673Z,8.83
2019-01-23T14:36:58.256Z,8.78
2019-01-23T14:39:29.956Z,8.81
2019-01-23T14:42:10.876Z,8.76
2019-01-23T14:44:43.786Z,8.74
2019-01-23T14:47:15.641Z,8.75
2019-01-23T14:49:47.413Z,8.84
2019-01-23T14:52:18.966Z,8.72
2019-01-23T14:54:50.681Z,8.76
2019-01-23T14:57:22.402Z,8.58
2019-01-23T14:59:54.026Z,8.44
2019-01-23T15:02:25.618Z,8.38
2019-01-23T15:04:57.990Z,8.24
2019-01-23T15:07:29.716Z,8.15
2019-01-23T15:10:01.262Z,8.03
2019-01-23T15:12:34.341Z,7.86
2019-01-23T15:15:06.250Z,7.76
2019-01-23T15:17:44.236Z,7.56
2019-01-23T15:20:19.339Z,7.47
2019-01-23T15:22:53.545Z,7.52
2019-01-23T15:25:25.202Z,7.51
2019-01-23T15:27:56.967Z,7.46
2019-01-23T15:30:30.109Z,7.60
2019-01-23T15:33:13.504Z,7.61
2019-01-23T15:35:46.627Z,7.62
2019-01-23T15:38:26.333Z,7.59
2019-01-23T15:40:57.906Z,7.65
2019-01-23T15:43:32.397Z,7.66
2019-01-23T15:46:04.016Z,7.65
2019-01-23T15:48:35.735Z,7.56
2019-01-23T15:51:07.336Z,7.55
2019-01-23T15:53:48.384Z,7.47
2019-01-23T15:56:20.000Z,7.40
2019-01-23T15:58:51.729Z,7.44
2019-01-23T16:01:23.257Z,7.56
2019-01-23T16:03:54.989Z,7.68
2019-01-23T16:06:27.519Z,7.77
2019-01-23T16:08:59.109Z,7.79
2019-01-23T16:11:30.878Z,7.87
2019-01-23T16:14:15.419Z,7.92
2019-01-23T16:16:48.676Z,8.00
2019-01-23T16:19:44.116Z,8.05
2019-01-23T16:22:15.654Z,8.06
2019-01-23T16:24:47.333Z,8.08
2019-01-23T16:27:19.006Z,8.06
2019-01-23T16:29:50.727Z,8.06
2019-01-23T16:32:22.473Z,8.09
2019-01-23T16:34:54.025Z,8.05
2019-01-23T16:37:25.619Z,7.92
2019-01-23T16:39:57.226Z,7.81
2019-01-23T16:42:29.716Z,7.84
2019-01-23T16:45:01.362Z,7.90
2019-01-23T16:47:34.366Z,7.86
2019-01-23T16:50:08.678Z,7.88
2019-01-23T16:52:40.329Z,7.96
2019-01-23T16:55:12.123Z,8.01
2019-01-23T16:57:44.308Z,7.94
2019-01-23T17:00:19.591Z,7.83
2019-01-23T17:02:51.239Z,7.83
2019-01-23T17:05:26.172Z,7.89
2019-01-23T17:08:00.021Z,7.68
2019-01-23T17:10:32.058Z,7.76
2019-01-23T17:13:03.524Z,7.92
2019-01-23T17:15:35.139Z,7.98
2019-01-23T17:18:06.881Z,8.13
2019-01-23T17:20:45.332Z,8.18
2019-01-23T17:23:16.921Z,8.27
2019-01-23T17:25:48.590Z,8.36
2019-01-23T17:28:20.303Z,8.39
2019-01-23T17:30:52.024Z,8.45
2019-01-23T17:33:23.417Z,8.53
2019-01-23T17:35:54.888Z,8.55
2019-01-23T17:38:26.487Z,8.29
2019-01-23T17:40:58.036Z,8.01
2019-01-23T17:43:30.405Z,7.82
2019-01-23T17:46:01.843Z,7.70
2019-01-23T17:48:33.410Z,7.73
2019-01-23T17:51:05.056Z,7.63
2019-01-23T17:53:36.622Z,7.45
2019-01-23T17:56:08.132Z,7.24
2019-01-23T17:58:39.784Z,7.09
2019-01-23T18:01:11.916Z,6.85
2019-01-23T18:03:45.099Z,6.76
2019-01-23T18:06:16.604Z,6.68
2019-01-23T18:08:48.106Z,6.59
2019-01-23T18:11:19.613Z,6.55
2019-01-23T18:13:51.188Z,6.55
2019-01-23T18:16:22.734Z,6.65
2019-01-23T18:18:54.451Z,6.79
2019-01-23T18:21:26.167Z,6.89
2019-01-23T18:23:57.798Z,6.99
2019-01-23T18:26:29.442Z,7.05
2019-01-23T18:29:00.926Z,7.05
2019-01-23T18:31:46.076Z,7.04
2019-01-23T18:35:15.726Z,7.00
2019-01-23T18:38:03.006Z,6.90
2019-01-23T18:41:35.994Z,6.85
2019-01-23T18:44:43.983Z,6.85
2019-01-23T18:47:57.464Z,6.84
2019-01-23T18:51:18.760Z,6.82
2019-01-23T18:53:50.266Z,6.83
2019-01-23T18:56:21.985Z,6.84
2019-01-23T18:58:53.579Z,6.90
2019-01-23T19:01:25.156Z,6.99
2019-01-23T19:03:56.684Z,6.98
2019-01-23T19:06:28.395Z,6.97
2019-01-23T19:08:59.836Z,6.97
2019-01-23T19:11:31.654Z,6.96
2019-01-23T19:14:03.207Z,6.97
2019-01-23T19:16:34.786Z,6.98
2019-01-23T19:19:06.364Z,6.99
2019-01-23T19:21:37.945Z,7.16
2019-01-23T19:24:09.484Z,7.27
2019-01-23T19:26:40.997Z,7.44
2019-01-23T19:29:12.555Z,7.50
2019-01-23T19:31:44.210Z,7.53
2019-01-23T19:34:15.683Z,7.50
2019-01-23T19:36:47.181Z,7.44
2019-01-23T19:39:18.772Z,7.48
2019-01-23T19:41:50.350Z,7.57
2019-01-23T19:44:21.906Z,7.71
2019-01-23T19:46:53.555Z,7.84
2019-01-23T19:49:25.068Z,7.96
2019-01-23T19:51:56.776Z,8.03
2019-01-23T19:54:29.454Z,8.04
2019-01-23T19:57:01.018Z,8.06
2019-01-23T19:59:32.684Z,8.08
2019-01-23T20:02:04.247Z,8.14
2019-01-23T20:04:37.181Z,8.19
2019-01-23T20:07:08.830Z,8.16
2019-01-23T20:09:41.517Z,8.15
2019-01-23T20:12:15.821Z,8.16
2019-01-23T20:14:46.735Z,8.14
2019-01-23T20:17:18.355Z,8.14
2019-01-23T20:19:49.856Z,8.16
2019-01-23T20:22:21.376Z,8.15
2019-01-23T20:24:53.016Z,8.13
2019-01-23T20:27:24.612Z,8.12
2019-01-23T20:29:56.377Z,8.14
2019-01-23T20:32:27.926Z,8.16
2019-01-23T20:34:59.668Z,8.11
2019-01-23T20:37:31.219Z,8.05
2019-01-23T20:40:02.906Z,8.07
2019-01-23T20:42:34.568Z,8.12
2019-01-23T20:45:07.976Z,8.15
2019-01-23T20:47:40.522Z,8.16
2019-01-23T20:50:19.619Z,8.19
2019-01-23T20:52:51.066Z,8.22
2019-01-23T20:55:22.751Z,8.21
2019-01-23T20:57:54.386Z,8.29
2019-01-23T21:00:30.950Z,8.32
2019-01-23T21:03:02.586Z,8.30
2019-01-23T21:05:34.303Z,8.30
2019-01-23T21:08:06.025Z,8.26
2019-01-23T21:10:37.501Z,8.20
2019-01-23T21:13:09.073Z,8.18
2019-01-23T21:15:40.587Z,8.23
2019-01-23T21:18:12.111Z,8.26
2019-01-23T21:20:47.255Z,8.24
2019-01-23T21:23:30.076Z,8.25
2019-01-23T21:26:05.246Z,8.27
2019-01-23T21:28:36.812Z,8.13
2019-01-23T21:31:15.239Z,8.09
2019-01-23T21:33:49.702Z,8.08
2019-01-23T21:36:21.250Z,8.04
2019-01-23T21:38:52.961Z,7.99
2019-01-23T21:41:24.561Z,7.95
2019-01-23T21:43:56.282Z,7.90
2019-01-23T21:46:27.932Z,7.91
2019-01-23T21:48:59.577Z,7.91
2019-01-23T21:51:31.031Z,7.90
2019-01-23T21:54:02.604Z,7.93
2019-01-23T21:56:34.063Z,7.92
2019-01-23T21:59:05.885Z,7.91
2019-01-23T22:01:37.471Z,7.98
2019-01-23T22:04:09.031Z,8.01
2019-01-23T22:06:40.574Z,8.06
2019-01-23T22:09:12.091Z,8.09
2019-01-23T22:11:43.975Z,8.07
2019-01-23T22:14:16.726Z,8.06
2019-01-23T22:16:48.296Z,8.04
2019-01-23T22:19:19.813Z,8.05
2019-01-23T22:21:51.367Z,7.99
2019-01-23T22:24:22.931Z,8.07
2019-01-23T22:26:54.450Z,8.09
2019-01-23T22:29:25.934Z,8.06
2019-01-23T22:31:57.510Z,8.08
2019-01-23T22:34:29.094Z,8.09
2019-01-23T22:37:00.711Z,8.12
2019-01-23T22:39:32.141Z,8.11
2019-01-23T22:42:03.748Z,8.13
2019-01-23T22:44:35.221Z,8.16
2019-01-23T22:47:06.807Z,8.12
2019-01-23T22:49:38.222Z,8.09
2019-01-23T22:52:09.786Z,8.12
2019-01-23T22:54:41.221Z,8.11
2019-01-23T22:57:12.812Z,8.09
2019-01-23T22:59:44.372Z,8.08
2019-01-23T23:02:16.108Z,8.04
2019-01-23T23:04:48.994Z,8.00
2019-01-23T23:07:20.639Z,7.94
2019-01-23T23:09:52.162Z,7.89
2019-01-23T23:12:23.778Z,7.84
2019-01-23T23:14:55.424Z,7.88
2019-01-23T23:17:28.062Z,7.88
2019-01-23T23:19:59.651Z,7.82
2019-01-23T23:22:31.327Z,7.89
2019-01-23T23:25:02.883Z,7.92
2019-01-23T23:27:39.358Z,7.95
2019-01-23T23:30:10.272Z,7.92
2019-01-23T23:32:41.861Z,7.93
2019-01-23T23:35:13.561Z,7.94
2019-01-23T23:37:45.206Z,7.97
2019-01-23T23:40:17.506Z,7.95
2019-01-23T23:42:48.971Z,7.98
2019-01-23T23:45:20.646Z,7.96
2019-01-23T23:47:52.071Z,7.96
2019-01-23T23:50:23.807Z,8.02
2019-01-23T23:52:55.391Z,8.00
2019-01-23T23:55:26.981Z,8.03
2019-01-23T23:57:58.531Z,8.04
